sensor_id;sensor_type;location;lat;lon;timestamp;pressure;altitude;pressure_sealevel;temperature;humidity
21504;BME280;10913;51.992;9.228;2023-04-26T00:01:57;100412.91;;;4.53;90.16
21504;BME280;10913;51.992;9.228;2023-04-26T00:04:23;100419.84;;;4.50;90.15
21504;BME280;10913;51.992;9.228;2023-04-26T00:06:49;100417.19;;;4.49;90.21
21504;BME280;10913;51.992;9.228;2023-04-26T00:09:15;100428.50;;;4.48;90.61
21504;BME280;10913;51.992;9.228;2023-04-26T00:11:40;100421.53;;;4.48;90.77
21504;BME280;10913;51.992;9.228;2023-04-26T00:14:06;100427.63;;;4.47;90.48
21504;BME280;10913;51.992;9.228;2023-04-26T00:16:31;100423.16;;;4.43;90.77
21504;BME280;10913;51.992;9.228;2023-04-26T00:18:57;100426.59;;;4.41;90.81
21504;BME280;10913;51.992;9.228;2023-04-26T00:21:23;100426.53;;;4.36;91.07
21504;BME280;10913;51.992;9.228;2023-04-26T00:23:49;100428.19;;;4.33;90.77
21504;BME280;10913;51.992;9.228;2023-04-26T00:26:14;100428.09;;;4.28;91.25
21504;BME280;10913;51.992;9.228;2023-04-26T00:28:40;100425.44;;;4.27;91.33
21504;BME280;10913;51.992;9.228;2023-04-26T00:31:05;100427.97;;;4.22;91.59
21504;BME280;10913;51.992;9.228;2023-04-26T00:33:31;100426.91;;;4.12;92.41
21504;BME280;10913;51.992;9.228;2023-04-26T00:35:56;100434.72;;;4.11;92.47
21504;BME280;10913;51.992;9.228;2023-04-26T00:38:22;100426.78;;;4.08;92.33
21504;BME280;10913;51.992;9.228;2023-04-26T00:40:47;100425.81;;;4.03;92.71
21504;BME280;10913;51.992;9.228;2023-04-26T00:43:12;100423.13;;;4.00;93.15
21504;BME280;10913;51.992;9.228;2023-04-26T00:45:38;100434.47;;;3.99;93.32
21504;BME280;10913;51.992;9.228;2023-04-26T00:48:04;100430.94;;;3.97;93.55
21504;BME280;10913;51.992;9.228;2023-04-26T00:50:30;100433.53;;;3.97;93.26
21504;BME280;10913;51.992;9.228;2023-04-26T00:52:59;100423.84;;;3.93;93.33
21504;BME280;10913;51.992;9.228;2023-04-26T00:55:26;100433.41;;;3.91;93.39
21504;BME280;10913;51.992;9.228;2023-04-26T00:57:52;100431.59;;;3.88;93.51
21504;BME280;10913;51.992;9.228;2023-04-26T01:00:18;100430.63;;;3.85;93.75
21504;BME280;10913;51.992;9.228;2023-04-26T01:02:44;100421.88;;;3.83;93.37
21504;BME280;10913;51.992;9.228;2023-04-26T01:05:09;100429.69;;;3.79;93.23
21504;BME280;10913;51.992;9.228;2023-04-26T01:07:35;100433.94;;;3.76;93.68
21504;BME280;10913;51.992;9.228;2023-04-26T01:10:03;100433.91;;;3.74;94.10
21504;BME280;10913;51.992;9.228;2023-04-26T01:12:34;100434.75;;;3.73;94.06
21504;BME280;10913;51.992;9.228;2023-04-26T01:15:01;100435.59;;;3.72;94.16
21504;BME280;10913;51.992;9.228;2023-04-26T01:17:27;100436.41;;;3.70;94.03
21504;BME280;10913;51.992;9.228;2023-04-26T01:19:52;100439.78;;;3.66;94.05
21504;BME280;10913;51.992;9.228;2023-04-26T01:22:17;100444.94;;;3.63;94.51
21504;BME280;10913;51.992;9.228;2023-04-26T01:24:50;100446.63;;;3.61;94.88
21504;BME280;10913;51.992;9.228;2023-04-26T01:27:16;100448.22;;;3.54;94.71
21504;BME280;10913;51.992;9.228;2023-04-26T01:29:42;100440.28;;;3.50;94.94
21504;BME280;10913;51.992;9.228;2023-04-26T01:32:07;100435.91;;;3.49;95.23
21504;BME280;10913;51.992;9.228;2023-04-26T01:34:33;100440.25;;;3.48;95.44
21504;BME280;10913;51.992;9.228;2023-04-26T01:36:59;100444.59;;;3.47;95.55
21504;BME280;10913;51.992;9.228;2023-04-26T01:39:24;100446.34;;;3.49;95.56
21504;BME280;10913;51.992;9.228;2023-04-26T01:41:50;100441.94;;;3.46;95.32
21504;BME280;10913;51.992;9.228;2023-04-26T01:44:16;100444.50;;;3.44;95.38
21504;BME280;10913;51.992;9.228;2023-04-26T01:46:41;100440.94;;;3.41;95.76
21504;BME280;10913;51.992;9.228;2023-04-26T01:49:06;100444.44;;;3.41;96.61
21504;BME280;10913;51.992;9.228;2023-04-26T01:51:32;100445.31;;;3.42;96.14
21504;BME280;10913;51.992;9.228;2023-04-26T01:53:58;100432.22;;;3.40;95.97
21504;BME280;10913;51.992;9.228;2023-04-26T01:56:24;100444.38;;;3.40;96.15
21504;BME280;10913;51.992;9.228;2023-04-26T01:58:49;100441.72;;;3.37;96.08
21504;BME280;10913;51.992;9.228;2023-04-26T02:01:14;100440.84;;;3.36;95.77
21504;BME280;10913;51.992;9.228;2023-04-26T02:03:40;100439.88;;;3.33;95.54
21504;BME280;10913;51.992;9.228;2023-04-26T02:06:05;100437.19;;;3.30;95.61
21504;BME280;10913;51.992;9.228;2023-04-26T02:08:31;100444.13;;;3.29;96.05
21504;BME280;10913;51.992;9.228;2023-04-26T02:10:57;100443.16;;;3.26;96.38
21504;BME280;10913;51.992;9.228;2023-04-26T02:13:22;100442.31;;;3.27;96.41
21504;BME280;10913;51.992;9.228;2023-04-26T02:15:48;100445.75;;;3.24;95.82
21504;BME280;10913;51.992;9.228;2023-04-26T02:18:14;100450.91;;;3.23;95.94
21504;BME280;10913;51.992;9.228;2023-04-26T02:20:41;100447.44;;;3.22;95.73
21504;BME280;10913;51.992;9.228;2023-04-26T02:23:11;100445.69;;;3.23;95.84
21504;BME280;10913;51.992;9.228;2023-04-26T02:25:37;100443.03;;;3.20;95.89
21504;BME280;10913;51.992;9.228;2023-04-26T02:28:06;100443.03;;;3.20;95.56
21504;BME280;10913;51.992;9.228;2023-04-26T02:30:31;100445.59;;;3.18;95.59
21504;BME280;10913;51.992;9.228;2023-04-26T02:32:57;100448.09;;;3.14;95.56
21504;BME280;10913;51.992;9.228;2023-04-26T02:35:23;100452.38;;;3.11;95.63
21504;BME280;10913;51.992;9.228;2023-04-26T02:37:49;100441.03;;;3.09;95.40
21504;BME280;10913;51.992;9.228;2023-04-26T02:40:17;100453.16;;;3.07;95.40
21504;BME280;10913;51.992;9.228;2023-04-26T02:42:43;100449.63;;;3.05;95.70
21504;BME280;10913;51.992;9.228;2023-04-26T02:45:10;100448.59;;;3.00;95.62
21504;BME280;10913;51.992;9.228;2023-04-26T02:47:35;100447.63;;;2.95;95.74
21504;BME280;10913;51.992;9.228;2023-04-26T02:50:06;100447.38;;;2.86;95.55
21504;BME280;10913;51.992;9.228;2023-04-26T02:52:34;100440.28;;;2.82;96.23
21504;BME280;10913;51.992;9.228;2023-04-26T02:54:59;100443.75;;;2.81;96.58
21504;BME280;10913;51.992;9.228;2023-04-26T02:57:25;100446.41;;;2.83;96.54
21504;BME280;10913;51.992;9.228;2023-04-26T02:59:51;100443.75;;;2.81;96.63
21504;BME280;10913;51.992;9.228;2023-04-26T03:02:16;100440.25;;;2.81;97.07
21504;BME280;10913;51.992;9.228;2023-04-26T03:04:42;100434.16;;;2.80;96.54
21504;BME280;10913;51.992;9.228;2023-04-26T03:07:07;100441.13;;;2.80;96.34
21504;BME280;10913;51.992;9.228;2023-04-26T03:09:33;100445.50;;;2.82;96.54
21504;BME280;10913;51.992;9.228;2023-04-26T03:12:04;100448.06;;;2.79;96.21
21504;BME280;10913;51.992;9.228;2023-04-26T03:14:30;100448.91;;;2.78;95.97
21504;BME280;10913;51.992;9.228;2023-04-26T03:16:55;100451.47;;;2.76;95.92
21504;BME280;10913;51.992;9.228;2023-04-26T03:19:21;100454.03;;;2.75;95.92
21504;BME280;10913;51.992;9.228;2023-04-26T03:21:46;100443.47;;;2.70;96.40
21504;BME280;10913;51.992;9.228;2023-04-26T03:24:11;100458.19;;;2.68;96.21
21504;BME280;10913;51.992;9.228;2023-04-26T03:26:37;100451.03;;;2.61;96.37
21504;BME280;10913;51.992;9.228;2023-04-26T03:29:02;100451.88;;;2.60;96.80
21504;BME280;10913;51.992;9.228;2023-04-26T03:31:28;100450.09;;;2.58;96.42
21504;BME280;10913;51.992;9.228;2023-04-26T03:33:53;100452.66;;;2.56;96.36
21504;BME280;10913;51.992;9.228;2023-04-26T03:36:18;100445.63;;;2.54;96.58
21504;BME280;10913;51.992;9.228;2023-04-26T03:38:44;100455.22;;;2.55;96.86
21504;BME280;10913;51.992;9.228;2023-04-26T03:41:10;100452.63;;;2.55;96.87
21504;BME280;10913;51.992;9.228;2023-04-26T03:43:35;100453.44;;;2.54;96.37
21504;BME280;10913;51.992;9.228;2023-04-26T03:46:01;100454.16;;;2.48;95.79
21504;BME280;10913;51.992;9.228;2023-04-26T03:48:26;100457.50;;;2.44;96.51
21504;BME280;10913;51.992;9.228;2023-04-26T03:50:52;100446.09;;;2.40;97.32
21504;BME280;10913;51.992;9.228;2023-04-26T03:53:18;100445.22;;;2.38;96.89
21504;BME280;10913;51.992;9.228;2023-04-26T03:55:43;100448.66;;;2.37;96.80
21504;BME280;10913;51.992;9.228;2023-04-26T03:58:09;100454.78;;;2.39;97.50
21504;BME280;10913;51.992;9.228;2023-04-26T04:00:39;100444.38;;;2.39;97.17
21504;BME280;10913;51.992;9.228;2023-04-26T04:03:08;100460.00;;;2.39;97.03
21504;BME280;10913;51.992;9.228;2023-04-26T04:05:33;100456.47;;;2.37;97.08
21504;BME280;10913;51.992;9.228;2023-04-26T04:07:59;100442.50;;;2.35;96.99
21504;BME280;10913;51.992;9.228;2023-04-26T04:10:24;100435.63;;;2.37;97.16
21504;BME280;10913;51.992;9.228;2023-04-26T04:12:50;100446.09;;;2.39;97.47
21504;BME280;10913;51.992;9.228;2023-04-26T04:15:17;100443.50;;;2.40;96.73
21504;BME280;10913;51.992;9.228;2023-04-26T04:17:44;100445.25;;;2.41;97.34
21504;BME280;10913;51.992;9.228;2023-04-26T04:20:10;100448.69;;;2.39;96.58
21504;BME280;10913;51.992;9.228;2023-04-26T04:22:36;100447.81;;;2.38;96.95
21504;BME280;10913;51.992;9.228;2023-04-26T04:25:05;100465.22;;;2.39;96.95
21504;BME280;10913;51.992;9.228;2023-04-26T04:27:30;100455.59;;;2.37;96.78
21504;BME280;10913;51.992;9.228;2023-04-26T04:29:56;100447.75;;;2.37;97.06
21504;BME280;10913;51.992;9.228;2023-04-26T04:32:26;100454.78;;;2.39;97.24
21504;BME280;10913;51.992;9.228;2023-04-26T04:34:51;100463.47;;;2.38;96.88
21504;BME280;10913;51.992;9.228;2023-04-26T04:37:18;100462.56;;;2.38;96.60
21504;BME280;10913;51.992;9.228;2023-04-26T04:39:43;100465.13;;;2.36;97.18
21504;BME280;10913;51.992;9.228;2023-04-26T04:42:09;100465.09;;;2.35;97.58
21504;BME280;10913;51.992;9.228;2023-04-26T04:44:34;100468.56;;;2.35;97.62
21504;BME280;10913;51.992;9.228;2023-04-26T04:47:01;100472.91;;;2.35;97.76
21504;BME280;10913;51.992;9.228;2023-04-26T04:49:26;100480.78;;;2.36;97.66
21504;BME280;10913;51.992;9.228;2023-04-26T04:51:51;100484.38;;;2.41;97.71
21504;BME280;10913;51.992;9.228;2023-04-26T04:54:17;100485.34;;;2.45;97.60
21504;BME280;10913;51.992;9.228;2023-04-26T04:56:43;100481.19;;;2.52;97.40
21504;BME280;10913;51.992;9.228;2023-04-26T04:59:10;100474.41;;;2.57;96.83
21504;BME280;10913;51.992;9.228;2023-04-26T05:01:35;100481.44;;;2.61;96.58
21504;BME280;10913;51.992;9.228;2023-04-26T05:04:03;100485.06;;;2.66;96.79
21504;BME280;10913;51.992;9.228;2023-04-26T05:06:29;100491.25;;;2.69;96.94
21504;BME280;10913;51.992;9.228;2023-04-26T05:08:56;100490.47;;;2.72;96.79
21504;BME280;10913;51.992;9.228;2023-04-26T05:11:23;100478.34;;;2.74;96.50
21504;BME280;10913;51.992;9.228;2023-04-26T05:13:49;100486.19;;;2.74;97.40
21504;BME280;10913;51.992;9.228;2023-04-26T05:16:15;100488.03;;;2.78;97.38
21504;BME280;10913;51.992;9.228;2023-04-26T05:18:41;100484.69;;;2.84;97.46
21504;BME280;10913;51.992;9.228;2023-04-26T05:21:07;100490.97;;;2.90;97.17
21504;BME280;10913;51.992;9.228;2023-04-26T05:23:33;100488.53;;;2.96;97.27
21504;BME280;10913;51.992;9.228;2023-04-26T05:26:05;100488.72;;;3.04;97.27
21504;BME280;10913;51.992;9.228;2023-04-26T05:28:32;100484.59;;;3.12;97.26
21504;BME280;10913;51.992;9.228;2023-04-26T05:30:58;100493.44;;;3.17;97.36
21504;BME280;10913;51.992;9.228;2023-04-26T05:33:24;100493.63;;;3.25;97.83
21504;BME280;10913;51.992;9.228;2023-04-26T05:35:50;100491.22;;;3.32;97.89
21504;BME280;10913;51.992;9.228;2023-04-26T05:38:16;100492.25;;;3.39;97.97
21504;BME280;10913;51.992;9.228;2023-04-26T05:40:42;100495.94;;;3.47;97.89
21504;BME280;10913;51.992;9.228;2023-04-26T05:43:07;100495.38;;;3.60;97.84
21504;BME280;10913;51.992;9.228;2023-04-26T05:45:32;100500.09;;;3.75;98.32
21504;BME280;10913;51.992;9.228;2023-04-26T05:47:58;100496.06;;;3.89;97.81
21504;BME280;10913;51.992;9.228;2023-04-26T05:50:23;100491.97;;;3.99;97.72
21504;BME280;10913;51.992;9.228;2023-04-26T05:52:48;100505.25;;;4.09;96.92
21504;BME280;10913;51.992;9.228;2023-04-26T05:55:14;100502.81;;;4.17;96.47
21504;BME280;10913;51.992;9.228;2023-04-26T05:57:39;100504.00;;;4.31;95.62
21504;BME280;10913;51.992;9.228;2023-04-26T06:00:05;100497.31;;;4.45;95.46
21504;BME280;10913;51.992;9.228;2023-04-26T06:02:33;100498.53;;;4.63;95.31
21504;BME280;10913;51.992;9.228;2023-04-26T06:04:58;100501.53;;;4.79;95.13
21504;BME280;10913;51.992;9.228;2023-04-26T06:07:24;100499.28;;;4.99;94.59
21504;BME280;10913;51.992;9.228;2023-04-26T06:09:49;100494.41;;;5.17;94.05
21504;BME280;10913;51.992;9.228;2023-04-26T06:12:14;100498.13;;;5.32;93.21
21504;BME280;10913;51.992;9.228;2023-04-26T06:14:40;100489.53;;;5.40;92.68
21504;BME280;10913;51.992;9.228;2023-04-26T06:17:06;100501.13;;;5.53;91.87
21504;BME280;10913;51.992;9.228;2023-04-26T06:19:31;100503.06;;;5.65;91.13
21504;BME280;10913;51.992;9.228;2023-04-26T06:21:56;100499.69;;;5.72;91.08
21504;BME280;10913;51.992;9.228;2023-04-26T06:24:22;100504.16;;;5.80;90.67
21504;BME280;10913;51.992;9.228;2023-04-26T06:26:49;100506.91;;;5.88;90.58
21504;BME280;10913;51.992;9.228;2023-04-26T06:29:17;100508.94;;;6.04;89.72
21504;BME280;10913;51.992;9.228;2023-04-26T06:31:43;100504.78;;;6.20;89.58
21504;BME280;10913;51.992;9.228;2023-04-26T06:34:09;100507.69;;;6.40;89.23
21504;BME280;10913;51.992;9.228;2023-04-26T06:36:35;100507.94;;;6.60;88.10
21504;BME280;10913;51.992;9.228;2023-04-26T06:39:01;100507.25;;;6.73;87.10
21504;BME280;10913;51.992;9.228;2023-04-26T06:41:26;100505.63;;;6.84;86.14
21504;BME280;10913;51.992;9.228;2023-04-26T06:43:52;100506.59;;;6.90;85.42
21504;BME280;10913;51.992;9.228;2023-04-26T06:46:17;100510.16;;;6.96;84.80
21504;BME280;10913;51.992;9.228;2023-04-26T06:48:43;100508.56;;;7.10;84.53
21504;BME280;10913;51.992;9.228;2023-04-26T06:51:08;100513.03;;;7.21;84.05
21504;BME280;10913;51.992;9.228;2023-04-26T06:53:34;100517.56;;;7.33;83.89
21504;BME280;10913;51.992;9.228;2023-04-26T06:56:01;100513.28;;;7.44;83.30
21504;BME280;10913;51.992;9.228;2023-04-26T06:58:26;100519.50;;;7.52;83.44
21504;BME280;10913;51.992;9.228;2023-04-26T07:00:51;100512.50;;;7.53;82.00
21504;BME280;10913;51.992;9.228;2023-04-26T07:03:17;100523.91;;;7.55;81.53
21504;BME280;10913;51.992;9.228;2023-04-26T07:05:43;100520.56;;;7.74;81.86
21504;BME280;10913;51.992;9.228;2023-04-26T07:08:09;100523.34;;;7.94;81.39
21504;BME280;10913;51.992;9.228;2023-04-26T07:10:34;100510.34;;;8.14;80.94
21504;BME280;10913;51.992;9.228;2023-04-26T07:13:00;100514.81;;;8.30;80.16
21504;BME280;10913;51.992;9.228;2023-04-26T07:15:25;100505.28;;;8.47;79.29
21504;BME280;10913;51.992;9.228;2023-04-26T07:17:51;100516.78;;;8.68;79.67
21504;BME280;10913;51.992;9.228;2023-04-26T07:20:16;100517.75;;;8.79;80.33
21504;BME280;10913;51.992;9.228;2023-04-26T07:22:45;100516.94;;;9.06;79.03
21504;BME280;10913;51.992;9.228;2023-04-26T07:25:11;100510.84;;;9.29;78.35
21504;BME280;10913;51.992;9.228;2023-04-26T07:27:36;100512.63;;;9.38;77.04
21504;BME280;10913;51.992;9.228;2023-04-26T07:30:02;100511.78;;;9.59;76.22
21504;BME280;10913;51.992;9.228;2023-04-26T07:32:27;100502.00;;;10.40;74.53
21504;BME280;10913;51.992;9.228;2023-04-26T07:34:53;100500.94;;;10.97;71.20
21504;BME280;10913;51.992;9.228;2023-04-26T07:37:18;100506.72;;;11.59;69.93
21504;BME280;10913;51.992;9.228;2023-04-26T07:39:43;100501.00;;;12.11;68.65
21504;BME280;10913;51.992;9.228;2023-04-26T07:42:09;100508.00;;;12.18;68.02
21504;BME280;10913;51.992;9.228;2023-04-26T07:44:34;100490.31;;;12.93;67.19
21504;BME280;10913;51.992;9.228;2023-04-26T07:47:00;100494.03;;;13.44;65.71
21504;BME280;10913;51.992;9.228;2023-04-26T07:49:26;100491.56;;;13.32;64.45
21504;BME280;10913;51.992;9.228;2023-04-26T07:51:51;100495.00;;;13.94;63.42
21504;BME280;10913;51.992;9.228;2023-04-26T07:54:17;100490.81;;;14.29;61.89
21504;BME280;10913;51.992;9.228;2023-04-26T07:56:42;100493.06;;;14.52;61.84
21504;BME280;10913;51.992;9.228;2023-04-26T07:59:08;100490.06;;;15.48;59.67
21504;BME280;10913;51.992;9.228;2023-04-26T08:01:33;100484.28;;;16.69;57.64
21504;BME280;10913;51.992;9.228;2023-04-26T08:04:00;100478.94;;;18.10;54.23
21504;BME280;10913;51.992;9.228;2023-04-26T08:06:25;100478.44;;;18.48;53.08
21504;BME280;10913;51.992;9.228;2023-04-26T08:08:51;100481.16;;;17.97;53.91
21504;BME280;10913;51.992;9.228;2023-04-26T08:11:18;100476.69;;;17.15;54.46
21504;BME280;10913;51.992;9.228;2023-04-26T08:13:43;100471.41;;;16.52;55.07
21504;BME280;10913;51.992;9.228;2023-04-26T08:16:08;100483.06;;;15.81;56.21
21504;BME280;10913;51.992;9.228;2023-04-26T08:18:34;100482.34;;;15.38;57.12
21504;BME280;10913;51.992;9.228;2023-04-26T08:21:01;100485.84;;;15.00;57.60
21504;BME280;10913;51.992;9.228;2023-04-26T08:23:26;100482.63;;;14.84;58.14
21504;BME280;10913;51.992;9.228;2023-04-26T08:25:52;100477.97;;;14.97;58.29
21504;BME280;10913;51.992;9.228;2023-04-26T08:28:18;100476.75;;;15.10;57.68
21504;BME280;10913;51.992;9.228;2023-04-26T08:30:43;100473.50;;;15.36;57.53
21504;BME280;10913;51.992;9.228;2023-04-26T08:33:10;100472.06;;;15.60;56.80
21504;BME280;10913;51.992;9.228;2023-04-26T08:35:35;100481.06;;;15.56;56.84
21504;BME280;10913;51.992;9.228;2023-04-26T08:38:00;100474.47;;;15.33;56.52
21504;BME280;10913;51.992;9.228;2023-04-26T08:40:26;100485.66;;;15.09;57.12
21504;BME280;10913;51.992;9.228;2023-04-26T08:42:53;100478.53;;;15.11;57.11
21504;BME280;10913;51.992;9.228;2023-04-26T08:45:19;100486.88;;;14.94;56.94
21504;BME280;10913;51.992;9.228;2023-04-26T08:48:04;100481.19;;;15.11;57.44
21504;BME280;10913;51.992;9.228;2023-04-26T08:50:32;100484.72;;;15.11;58.13
21504;BME280;10913;51.992;9.228;2023-04-26T08:53:01;100484.03;;;15.02;58.21
21504;BME280;10913;51.992;9.228;2023-04-26T08:55:27;100482.50;;;14.92;58.57
21504;BME280;10913;51.992;9.228;2023-04-26T08:57:53;100482.81;;;14.76;58.61
21504;BME280;10913;51.992;9.228;2023-04-26T09:00:20;100489.72;;;14.39;58.48
21504;BME280;10913;51.992;9.228;2023-04-26T09:02:48;100500.19;;;14.00;59.68
21504;BME280;10913;51.992;9.228;2023-04-26T09:05:16;100504.56;;;13.51;59.73
21504;BME280;10913;51.992;9.228;2023-04-26T09:07:46;100503.66;;;12.87;60.93
21504;BME280;10913;51.992;9.228;2023-04-26T09:10:13;100499.63;;;12.57;61.93
21504;BME280;10913;51.992;9.228;2023-04-26T09:12:42;100513.25;;;12.21;63.33
21504;BME280;10913;51.992;9.228;2023-04-26T09:15:08;100506.50;;;11.86;64.69
21504;BME280;10913;51.992;9.228;2023-04-26T09:17:36;100496.13;;;11.59;65.59
21504;BME280;10913;51.992;9.228;2023-04-26T09:20:26;100505.03;;;11.43;66.26
21504;BME280;10913;51.992;9.228;2023-04-26T09:23:02;100495.47;;;11.26;67.85
21504;BME280;10913;51.992;9.228;2023-04-26T09:25:30;100503.41;;;11.20;67.48
21504;BME280;10913;51.992;9.228;2023-04-26T09:27:57;100499.09;;;11.07;65.46
21504;BME280;10913;51.992;9.228;2023-04-26T09:30:23;100498.25;;;11.02;66.24
21504;BME280;10913;51.992;9.228;2023-04-26T09:35:34;100508.81;;;11.05;66.44
21504;BME280;10913;51.992;9.228;2023-04-26T09:38:06;100500.88;;;11.03;67.12
21504;BME280;10913;51.992;9.228;2023-04-26T09:40:33;100497.34;;;11.01;66.53
21504;BME280;10913;51.992;9.228;2023-04-26T09:43:06;100502.66;;;11.00;66.99
21504;BME280;10913;51.992;9.228;2023-04-26T09:45:42;100507.03;;;11.10;66.63
21504;BME280;10913;51.992;9.228;2023-04-26T09:48:12;100502.53;;;11.24;65.54
21504;BME280;10913;51.992;9.228;2023-04-26T09:50:38;100500.69;;;11.38;64.80
21504;BME280;10913;51.992;9.228;2023-04-26T09:53:04;100497.19;;;11.35;64.08
21504;BME280;10913;51.992;9.228;2023-04-26T09:55:30;100507.81;;;11.21;65.86
21504;BME280;10913;51.992;9.228;2023-04-26T09:57:56;100508.78;;;11.08;66.11
21504;BME280;10913;51.992;9.228;2023-04-26T10:00:23;100504.41;;;11.05;65.29
21504;BME280;10913;51.992;9.228;2023-04-26T10:02:51;100505.28;;;11.06;65.80
21504;BME280;10913;51.992;9.228;2023-04-26T10:05:17;100506.16;;;11.05;66.23
21504;BME280;10913;51.992;9.228;2023-04-26T10:07:43;100508.78;;;11.14;65.70
21504;BME280;10913;51.992;9.228;2023-04-26T10:10:10;100502.63;;;11.11;64.88
21504;BME280;10913;51.992;9.228;2023-04-26T10:12:36;100501.75;;;11.04;64.63
21504;BME280;10913;51.992;9.228;2023-04-26T10:15:02;100510.56;;;11.06;65.43
21504;BME280;10913;51.992;9.228;2023-04-26T10:17:28;100514.09;;;11.02;65.85
21504;BME280;10913;51.992;9.228;2023-04-26T10:23:20;100510.75;;;10.60;65.99
21504;BME280;10913;51.992;9.228;2023-04-26T10:25:47;100516.97;;;10.50;66.24
21504;BME280;10913;51.992;9.228;2023-04-26T10:28:13;100509.06;;;10.41;67.16
21504;BME280;10913;51.992;9.228;2023-04-26T10:30:57;100514.38;;;10.35;65.91
21504;BME280;10913;51.992;9.228;2023-04-26T10:33:24;100509.09;;;10.27;65.40
21504;BME280;10913;51.992;9.228;2023-04-26T10:36:04;100508.22;;;10.31;66.37
21504;BME280;10913;51.992;9.228;2023-04-26T10:38:31;100501.19;;;10.33;67.30
21504;BME280;10913;51.992;9.228;2023-04-26T10:46:58;100495.84;;;10.52;66.21
21504;BME280;10913;51.992;9.228;2023-04-26T10:49:26;100487.84;;;10.72;65.52
21504;BME280;10913;51.992;9.228;2023-04-26T10:52:10;100478.81;;;11.09;64.59
21504;BME280;10913;51.992;9.228;2023-04-26T10:54:52;100478.53;;;11.52;64.23
21504;BME280;10913;51.992;9.228;2023-04-26T10:57:19;100476.50;;;11.87;64.01
21504;BME280;10913;51.992;9.228;2023-04-26T11:03:02;100470.97;;;12.12;59.50
21504;BME280;10913;51.992;9.228;2023-04-26T11:08:15;100469.50;;;11.80;59.87
21504;BME280;10913;51.992;9.228;2023-04-26T11:10:42;100469.53;;;11.72;59.45
21504;BME280;10913;51.992;9.228;2023-04-26T11:13:07;100473.97;;;11.69;60.48
21504;BME280;10913;51.992;9.228;2023-04-26T11:15:34;100476.66;;;11.66;60.45
21504;BME280;10913;51.992;9.228;2023-04-26T11:18:03;100466.97;;;11.60;60.89
21504;BME280;10913;51.992;9.228;2023-04-26T11:20:32;100475.00;;;11.53;60.53
21504;BME280;10913;51.992;9.228;2023-04-26T11:22:59;100474.16;;;11.45;60.09
21504;BME280;10913;51.992;9.228;2023-04-26T11:25:26;100467.13;;;11.40;60.70
21504;BME280;10913;51.992;9.228;2023-04-26T11:28:00;100469.78;;;11.40;60.97
21504;BME280;10913;51.992;9.228;2023-04-26T11:30:29;100468.91;;;11.42;60.08
21504;BME280;10913;51.992;9.228;2023-04-26T11:32:56;100475.13;;;11.37;60.96
21504;BME280;10913;51.992;9.228;2023-04-26T11:35:22;100471.63;;;11.32;60.96
21504;BME280;10913;51.992;9.228;2023-04-26T11:37:50;100487.50;;;11.29;62.04
21504;BME280;10913;51.992;9.228;2023-04-26T11:40:16;100486.66;;;11.23;62.55
21504;BME280;10913;51.992;9.228;2023-04-26T11:45:17;100490.34;;;10.97;63.00
21504;BME280;10913;51.992;9.228;2023-04-26T11:47:43;100499.19;;;10.89;62.97
21504;BME280;10913;51.992;9.228;2023-04-26T11:50:09;100497.44;;;10.92;63.47
21504;BME280;10913;51.992;9.228;2023-04-26T11:52:35;100495.66;;;10.90;64.31
21504;BME280;10913;51.992;9.228;2023-04-26T11:55:05;100491.28;;;10.81;64.55
21504;BME280;10913;51.992;9.228;2023-04-26T11:57:31;100501.03;;;10.72;64.29
21504;BME280;10913;51.992;9.228;2023-04-26T12:00:11;100508.09;;;10.69;64.73
21504;BME280;10913;51.992;9.228;2023-04-26T12:02:39;100502.81;;;10.68;63.75
21504;BME280;10913;51.992;9.228;2023-04-26T12:05:05;100504.63;;;10.52;63.25
21504;BME280;10913;51.992;9.228;2023-04-26T12:07:35;100505.50;;;10.54;63.67
21504;BME280;10913;51.992;9.228;2023-04-26T12:10:16;100510.81;;;10.45;63.10
21504;BME280;10913;51.992;9.228;2023-04-26T12:12:46;100507.28;;;10.46;64.65
21504;BME280;10913;51.992;9.228;2023-04-26T12:15:12;100505.50;;;10.59;64.74
21504;BME280;10913;51.992;9.228;2023-04-26T12:17:37;100505.44;;;10.73;64.98
21504;BME280;10913;51.992;9.228;2023-04-26T12:20:10;100508.88;;;10.93;65.12
21504;BME280;10913;51.992;9.228;2023-04-26T12:22:35;100512.31;;;11.07;64.81
21504;BME280;10913;51.992;9.228;2023-04-26T12:25:05;100514.00;;;11.20;64.22
21504;BME280;10913;51.992;9.228;2023-04-26T12:27:31;100502.50;;;11.30;64.40
21504;BME280;10913;51.992;9.228;2023-04-26T12:29:56;100504.19;;;11.39;64.27
21504;BME280;10913;51.992;9.228;2023-04-26T12:32:22;100499.78;;;11.39;64.31
21504;BME280;10913;51.992;9.228;2023-04-26T12:34:47;100503.25;;;11.46;63.81
21504;BME280;10913;51.992;9.228;2023-04-26T12:37:13;100506.72;;;11.56;64.02
21504;BME280;10913;51.992;9.228;2023-04-26T12:39:38;100494.25;;;11.73;63.77
21504;BME280;10913;51.992;9.228;2023-04-26T12:42:03;100496.81;;;11.85;59.85
21504;BME280;10913;51.992;9.228;2023-04-26T12:44:29;100486.16;;;11.93;58.02
21504;BME280;10913;51.992;9.228;2023-04-26T12:46:54;100487.94;;;11.92;58.12
21504;BME280;10913;51.992;9.228;2023-04-26T12:49:20;100493.09;;;12.06;57.81
21504;BME280;10913;51.992;9.228;2023-04-26T12:51:45;100491.22;;;12.17;59.25
21504;BME280;10913;51.992;9.228;2023-04-26T12:54:11;100486.72;;;12.24;59.25
21504;BME280;10913;51.992;9.228;2023-04-26T12:56:36;100496.41;;;12.28;60.06
21504;BME280;10913;51.992;9.228;2023-04-26T12:59:08;100492.03;;;12.21;60.57
21504;BME280;10913;51.992;9.228;2023-04-26T13:01:33;100485.00;;;12.20;60.37
21504;BME280;10913;51.992;9.228;2023-04-26T13:03:59;100489.47;;;12.18;60.48
21504;BME280;10913;51.992;9.228;2023-04-26T13:06:25;100490.53;;;11.98;59.29
21504;BME280;10913;51.992;9.228;2023-04-26T13:08:52;100490.63;;;11.86;61.19
21504;BME280;10913;51.992;9.228;2023-04-26T13:11:17;100488.09;;;11.71;60.88
21504;BME280;10913;51.992;9.228;2023-04-26T13:13:42;100496.91;;;11.78;61.34